sensor_id;sensor_type;location;lat;lon;timestamp;pressure;altitude;pressure_sealevel;temperature;humidity
33185;BME280;19550;42.872;25.494;2023-03-14T00:01:20;96647.47;;;0.67;95.11
33185;BME280;19550;42.872;25.494;2023-03-14T00:03:47;96640.22;;;0.72;94.58
33185;BME280;19550;42.872;25.494;2023-03-14T00:06:15;96637.31;;;0.62;94.72
33185;BME280;19550;42.872;25.494;2023-03-14T00:08:43;96631.88;;;0.62;95.38
33185;BME280;19550;42.872;25.494;2023-03-14T00:11:12;96633.13;;;0.55;95.11
33185;BME280;19550;42.872;25.494;2023-03-14T00:13:39;96629.47;;;0.66;94.67
33185;BME280;19550;42.872;25.494;2023-03-14T00:16:08;96628.84;;;0.59;95.31
33185;BME280;19550;42.872;25.494;2023-03-14T00:18:37;96627.03;;;0.48;95.67
33185;BME280;19550;42.872;25.494;2023-03-14T00:21:06;96626.72;;;0.27;96.71
33185;BME280;19550;42.872;25.494;2023-03-14T00:23:35;96629.16;;;0.24;97.01
33185;BME280;19550;42.872;25.494;2023-03-14T00:26:05;96617.66;;;0.38;96.32
33185;BME280;19550;42.872;25.494;2023-03-14T00:28:32;96623.66;;;0.40;96.39
33185;BME280;19550;42.872;25.494;2023-03-14T00:30:59;96619.00;;;0.19;96.53
33185;BME280;19550;42.872;25.494;2023-03-14T00:33:28;96612.44;;;0.20;97.36
33185;BME280;19550;42.872;25.494;2023-03-14T00:35:57;96610.72;;;0.14;98.09
33185;BME280;19550;42.872;25.494;2023-03-14T00:38:25;96602.47;;;0.09;98.21
33185;BME280;19550;42.872;25.494;2023-03-14T00:40:52;96599.81;;;0.14;97.39
33185;BME280;19550;42.872;25.494;2023-03-14T00:43:20;96601.66;;;0.25;96.94
33185;BME280;19550;42.872;25.494;2023-03-14T00:45:47;96593.53;;;0.30;96.84
33185;BME280;19550;42.872;25.494;2023-03-14T00:48:14;96589.41;;;0.28;96.45
33185;BME280;19550;42.872;25.494;2023-03-14T00:50:40;96589.56;;;0.38;96.20
33185;BME280;19550;42.872;25.494;2023-03-14T00:53:09;96582.41;;;0.15;97.00
33185;BME280;19550;42.872;25.494;2023-03-14T00:55:36;96580.56;;;0.21;96.63
33185;BME280;19550;42.872;25.494;2023-03-14T00:58:03;96578.31;;;0.13;97.17
33185;BME280;19550;42.872;25.494;2023-03-14T01:00:30;96581.53;;;-0.07;97.67
33185;BME280;19550;42.872;25.494;2023-03-14T01:02:57;96571.78;;;-0.03;98.73
33185;BME280;19550;42.872;25.494;2023-03-14T01:05:24;96571.63;;;-0.13;99.34
33185;BME280;19550;42.872;25.494;2023-03-14T01:07:51;96576.75;;;-0.17;99.25
33185;BME280;19550;42.872;25.494;2023-03-14T01:10:19;96569.31;;;-0.05;98.35
33185;BME280;19550;42.872;25.494;2023-03-14T01:12:48;96576.41;;;-0.04;97.92
33185;BME280;19550;42.872;25.494;2023-03-14T01:15:15;96568.09;;;-0.14;98.32
33185;BME280;19550;42.872;25.494;2023-03-14T01:17:41;96565.84;;;-0.17;99.02
33185;BME280;19550;42.872;25.494;2023-03-14T01:20:11;96556.78;;;-0.22;99.26
33185;BME280;19550;42.872;25.494;2023-03-14T01:22:39;96554.81;;;-0.27;100.00
33185;BME280;19550;42.872;25.494;2023-03-14T01:25:08;96558.75;;;-0.18;99.68
33185;BME280;19550;42.872;25.494;2023-03-14T01:27:37;96557.44;;;-0.32;99.46
33185;BME280;19550;42.872;25.494;2023-03-14T01:30:05;96551.50;;;-0.29;99.49
33185;BME280;19550;42.872;25.494;2023-03-14T01:32:33;96551.50;;;-0.29;99.27
33185;BME280;19550;42.872;25.494;2023-03-14T01:35:00;96548.53;;;-0.27;100.00
33185;BME280;19550;42.872;25.494;2023-03-14T01:37:27;96550.00;;;-0.20;99.55
33185;BME280;19550;42.872;25.494;2023-03-14T01:39:54;96553.00;;;-0.21;99.47
33185;BME280;19550;42.872;25.494;2023-03-14T01:42:21;96549.69;;;-0.23;98.82
33185;BME280;19550;42.872;25.494;2023-03-14T01:44:51;96547.03;;;-0.18;98.44
33185;BME280;19550;42.872;25.494;2023-03-14T01:47:18;96530.22;;;-0.15;98.41
33185;BME280;19550;42.872;25.494;2023-03-14T01:49:46;96540.94;;;-0.25;98.60
33185;BME280;19550;42.872;25.494;2023-03-14T01:52:20;96530.88;;;-0.25;98.56
33185;BME280;19550;42.872;25.494;2023-03-14T01:54:51;96538.78;;;-0.23;98.83
33185;BME280;19550;42.872;25.494;2023-03-14T01:57:20;96521.22;;;-0.32;98.39
33185;BME280;19550;42.872;25.494;2023-03-14T01:59:53;96527.50;;;-0.32;99.16
33185;BME280;19550;42.872;25.494;2023-03-14T02:02:21;96526.50;;;-0.26;98.55
33185;BME280;19550;42.872;25.494;2023-03-14T02:04:49;96520.72;;;-0.29;98.31
33185;BME280;19550;42.872;25.494;2023-03-14T02:07:19;96530.03;;;-0.25;98.05
33185;BME280;19550;42.872;25.494;2023-03-14T02:09:48;96531.63;;;-0.29;97.69
33185;BME280;19550;42.872;25.494;2023-03-14T02:12:16;96528.91;;;-0.46;98.86
33185;BME280;19550;42.872;25.494;2023-03-14T02:14:44;96536.84;;;-0.61;100.00
33185;BME280;19550;42.872;25.494;2023-03-14T02:17:16;96522.31;;;-0.67;100.00
33185;BME280;19550;42.872;25.494;2023-03-14T02:20:03;96531.19;;;-0.71;100.00
33185;BME280;19550;42.872;25.494;2023-03-14T02:22:34;96536.25;;;-0.63;100.00
33185;BME280;19550;42.872;25.494;2023-03-14T02:25:08;96531.56;;;-0.68;100.00
33185;BME280;19550;42.872;25.494;2023-03-14T02:27:39;96520.88;;;-0.53;100.00
33185;BME280;19550;42.872;25.494;2023-03-14T02:30:08;96523.88;;;-0.54;100.00
33185;BME280;19550;42.872;25.494;2023-03-14T02:32:40;96516.19;;;-0.57;100.00
33185;BME280;19550;42.872;25.494;2023-03-14T02:35:10;96521.66;;;-0.57;100.00
33185;BME280;19550;42.872;25.494;2023-03-14T02:37:41;96507.38;;;-0.48;99.37
33185;BME280;19550;42.872;25.494;2023-03-14T02:40:10;96508.88;;;-0.73;100.00
33185;BME280;19550;42.872;25.494;2023-03-14T02:42:39;96511.00;;;-0.59;100.00
33185;BME280;19550;42.872;25.494;2023-03-14T02:45:32;96518.09;;;-0.74;100.00
33185;BME280;19550;42.872;25.494;2023-03-14T02:48:03;96518.34;;;-0.76;100.00
33185;BME280;19550;42.872;25.494;2023-03-14T02:50:32;96517.28;;;-0.75;100.00
33185;BME280;19550;42.872;25.494;2023-03-14T02:53:00;96521.66;;;-0.74;100.00
33185;BME280;19550;42.872;25.494;2023-03-14T02:55:27;96520.00;;;-0.75;100.00
33185;BME280;19550;42.872;25.494;2023-03-14T02:57:55;96515.28;;;-0.80;100.00
33185;BME280;19550;42.872;25.494;2023-03-14T03:00:22;96514.63;;;-0.70;100.00
33185;BME280;19550;42.872;25.494;2023-03-14T03:02:49;96520.31;;;-0.88;100.00
33185;BME280;19550;42.872;25.494;2023-03-14T03:05:16;96536.47;;;-0.82;100.00
33185;BME280;19550;42.872;25.494;2023-03-14T03:07:42;96530.69;;;-0.85;100.00
33185;BME280;19550;42.872;25.494;2023-03-14T03:10:10;96529.63;;;-0.84;100.00
33185;BME280;19550;42.872;25.494;2023-03-14T03:12:37;96531.13;;;-0.93;100.00
33185;BME280;19550;42.872;25.494;2023-03-14T03:15:06;96537.03;;;-0.96;100.00
33185;BME280;19550;42.872;25.494;2023-03-14T03:17:33;96532.56;;;-1.02;100.00
33185;BME280;19550;42.872;25.494;2023-03-14T03:20:00;96522.16;;;-1.05;100.00
33185;BME280;19550;42.872;25.494;2023-03-14T03:22:29;96532.06;;;-0.99;100.00
33185;BME280;19550;42.872;25.494;2023-03-14T03:24:55;96528.88;;;-0.96;100.00
33185;BME280;19550;42.872;25.494;2023-03-14T03:27:22;96537.03;;;-0.96;100.00
33185;BME280;19550;42.872;25.494;2023-03-14T03:29:49;96536.22;;;-0.97;100.00
33185;BME280;19550;42.872;25.494;2023-03-14T03:32:17;96532.19;;;-0.94;100.00
33185;BME280;19550;42.872;25.494;2023-03-14T03:34:44;96533.63;;;-1.03;100.00
33185;BME280;19550;42.872;25.494;2023-03-14T03:37:11;96536.06;;;-1.18;100.00
33185;BME280;19550;42.872;25.494;2023-03-14T03:39:37;96526.84;;;-1.17;100.00
33185;BME280;19550;42.872;25.494;2023-03-14T03:42:04;96525.31;;;-1.13;100.00
33185;BME280;19550;42.872;25.494;2023-03-14T03:44:31;96524.34;;;-1.07;100.00
33185;BME280;19550;42.872;25.494;2023-03-14T03:46:58;96526.53;;;-1.04;100.00
33185;BME280;19550;42.872;25.494;2023-03-14T03:49:29;96520.66;;;-1.13;100.00
33185;BME280;19550;42.872;25.494;2023-03-14T03:51:56;96530.47;;;-1.12;100.00
33185;BME280;19550;42.872;25.494;2023-03-14T03:54:23;96530.31;;;-1.05;100.00
33185;BME280;19550;42.872;25.494;2023-03-14T03:56:50;96518.25;;;-1.26;100.00
33185;BME280;19550;42.872;25.494;2023-03-14T03:59:17;96521.41;;;-1.17;100.00
33185;BME280;19550;42.872;25.494;2023-03-14T04:01:44;96520.69;;;-1.41;100.00
33185;BME280;19550;42.872;25.494;2023-03-14T04:04:10;96524.47;;;-1.42;100.00
33185;BME280;19550;42.872;25.494;2023-03-14T04:06:39;96519.13;;;-1.37;100.00
33185;BME280;19550;42.872;25.494;2023-03-14T04:09:07;96503.50;;;-1.30;100.00
33185;BME280;19550;42.872;25.494;2023-03-14T04:11:34;96506.44;;;-1.32;100.00
33185;BME280;19550;42.872;25.494;2023-03-14T04:14:01;96502.19;;;-1.28;100.00
33185;BME280;19550;42.872;25.494;2023-03-14T04:16:28;96501.16;;;-1.38;100.00
33185;BME280;19550;42.872;25.494;2023-03-14T04:18:56;96498.06;;;-1.30;100.00
33185;BME280;19550;42.872;25.494;2023-03-14T04:21:24;96491.72;;;-1.36;100.00
33185;BME280;19550;42.872;25.494;2023-03-14T04:23:52;96484.97;;;-1.33;100.00
33185;BME280;19550;42.872;25.494;2023-03-14T04:26:19;96487.94;;;-1.35;100.00
33185;BME280;19550;42.872;25.494;2023-03-14T04:28:46;96480.41;;;-1.44;100.00
33185;BME280;19550;42.872;25.494;2023-03-14T04:31:16;96474.50;;;-1.41;100.00
33185;BME280;19550;42.872;25.494;2023-03-14T04:33:43;96472.75;;;-1.47;100.00
33185;BME280;19550;42.872;25.494;2023-03-14T04:36:10;96472.47;;;-1.46;100.00
33185;BME280;19550;42.872;25.494;2023-03-14T04:38:37;96477.44;;;-1.43;100.00
33185;BME280;19550;42.872;25.494;2023-03-14T04:41:06;96471.56;;;-1.51;100.00
33185;BME280;19550;42.872;25.494;2023-03-14T04:43:33;96466.34;;;-1.41;100.00
33185;BME280;19550;42.872;25.494;2023-03-14T04:46:00;96458.25;;;-1.53;100.00
33185;BME280;19550;42.872;25.494;2023-03-14T04:48:27;96460.44;;;-1.50;100.00
33185;BME280;19550;42.872;25.494;2023-03-14T04:50:54;96452.50;;;-1.40;100.00
33185;BME280;19550;42.872;25.494;2023-03-14T04:53:21;96445.88;;;-1.44;100.00
33185;BME280;19550;42.872;25.494;2023-03-14T04:55:48;96457.66;;;-1.55;100.00
33185;BME280;19550;42.872;25.494;2023-03-14T04:58:16;96447.41;;;-1.65;100.00
33185;BME280;19550;42.872;25.494;2023-03-14T05:00:43;96445.72;;;-1.54;100.00
33185;BME280;19550;42.872;25.494;2023-03-14T05:03:10;96450.09;;;-1.36;100.00
33185;BME280;19550;42.872;25.494;2023-03-14T05:05:37;96452.03;;;-1.20;100.00
33185;BME280;19550;42.872;25.494;2023-03-14T05:08:04;96445.47;;;-1.07;100.00
33185;BME280;19550;42.872;25.494;2023-03-14T05:10:31;96448.00;;;-0.84;100.00
33185;BME280;19550;42.872;25.494;2023-03-14T05:12:57;96442.75;;;-0.74;100.00
33185;BME280;19550;42.872;25.494;2023-03-14T05:15:25;96442.31;;;-0.66;100.00
33185;BME280;19550;42.872;25.494;2023-03-14T05:17:52;96437.34;;;-0.52;100.00
33185;BME280;19550;42.872;25.494;2023-03-14T05:20:19;96433.44;;;-0.40;99.18
33185;BME280;19550;42.872;25.494;2023-03-14T05:22:46;96437.59;;;-0.15;97.37
33185;BME280;19550;42.872;25.494;2023-03-14T05:25:14;96440.06;;;0.08;96.22
33185;BME280;19550;42.872;25.494;2023-03-14T05:27:41;96435.00;;;0.17;95.10
33185;BME280;19550;42.872;25.494;2023-03-14T05:30:08;96434.81;;;0.23;95.27
33185;BME280;19550;42.872;25.494;2023-03-14T05:32:37;96434.88;;;0.28;94.20
33185;BME280;19550;42.872;25.494;2023-03-14T05:35:04;96433.59;;;0.36;93.89
33185;BME280;19550;42.872;25.494;2023-03-14T05:37:31;96422.75;;;0.41;92.92
33185;BME280;19550;42.872;25.494;2023-03-14T05:39:58;96433.00;;;0.56;91.85
33185;BME280;19550;42.872;25.494;2023-03-14T05:42:25;96431.75;;;0.68;91.79
33185;BME280;19550;42.872;25.494;2023-03-14T05:44:51;96422.06;;;0.83;90.43
33185;BME280;19550;42.872;25.494;2023-03-14T05:47:18;96426.50;;;0.89;90.26
33185;BME280;19550;42.872;25.494;2023-03-14T05:49:46;96423.91;;;1.04;89.58
33185;BME280;19550;42.872;25.494;2023-03-14T05:52:14;96422.41;;;1.18;88.51
33185;BME280;19550;42.872;25.494;2023-03-14T05:54:40;96409.88;;;1.27;87.68
33185;BME280;19550;42.872;25.494;2023-03-14T05:57:07;96420.81;;;1.27;87.32
33185;BME280;19550;42.872;25.494;2023-03-14T05:59:34;96415.19;;;1.39;87.30
33185;BME280;19550;42.872;25.494;2023-03-14T06:02:01;96412.88;;;1.63;86.35
33185;BME280;19550;42.872;25.494;2023-03-14T06:04:28;96413.22;;;1.71;85.20
33185;BME280;19550;42.872;25.494;2023-03-14T06:06:56;96416.72;;;1.67;85.59
33185;BME280;19550;42.872;25.494;2023-03-14T06:09:23;96414.34;;;1.80;85.24
33185;BME280;19550;42.872;25.494;2023-03-14T06:11:49;96408.72;;;2.02;84.17
33185;BME280;19550;42.872;25.494;2023-03-14T06:14:17;96409.97;;;2.42;83.30
33185;BME280;19550;42.872;25.494;2023-03-14T06:16:43;96405.41;;;2.77;81.25
33185;BME280;19550;42.872;25.494;2023-03-14T06:19:10;96411.44;;;2.90;80.45
33185;BME280;19550;42.872;25.494;2023-03-14T06:21:37;96413.66;;;2.98;79.69
33185;BME280;19550;42.872;25.494;2023-03-14T06:24:05;96405.19;;;3.25;78.80
33185;BME280;19550;42.872;25.494;2023-03-14T06:26:32;96413.09;;;3.72;76.76
33185;BME280;19550;42.872;25.494;2023-03-14T06:28:59;96410.00;;;3.98;76.08
33185;BME280;19550;42.872;25.494;2023-03-14T06:31:29;96396.22;;;4.14;73.48
33185;BME280;19550;42.872;25.494;2023-03-14T06:33:56;96405.22;;;4.29;72.10
33185;BME280;19550;42.872;25.494;2023-03-14T06:36:23;96398.06;;;4.38;71.18
33185;BME280;19550;42.872;25.494;2023-03-14T06:38:50;96395.81;;;4.51;71.81
33185;BME280;19550;42.872;25.494;2023-03-14T06:41:18;96397.34;;;4.72;70.10
33185;BME280;19550;42.872;25.494;2023-03-14T06:43:45;96394.69;;;4.96;68.37
33185;BME280;19550;42.872;25.494;2023-03-14T06:46:12;96389.75;;;4.93;68.58
33185;BME280;19550;42.872;25.494;2023-03-14T06:48:39;96387.75;;;5.08;67.81
33185;BME280;19550;42.872;25.494;2023-03-14T06:51:06;96384.44;;;5.40;67.33
33185;BME280;19550;42.872;25.494;2023-03-14T06:53:32;96380.22;;;5.82;67.14
33185;BME280;19550;42.872;25.494;2023-03-14T06:55:59;96380.44;;;6.14;65.84
33185;BME280;19550;42.872;25.494;2023-03-14T06:58:27;96375.72;;;6.38;65.01
33185;BME280;19550;42.872;25.494;2023-03-14T07:00:54;96377.19;;;6.73;63.81
33185;BME280;19550;42.872;25.494;2023-03-14T07:03:22;96379.00;;;6.83;62.45
33185;BME280;19550;42.872;25.494;2023-03-14T07:05:49;96368.50;;;7.04;60.80
33185;BME280;19550;42.872;25.494;2023-03-14T07:08:16;96372.72;;;7.15;59.18
33185;BME280;19550;42.872;25.494;2023-03-14T07:10:43;96365.97;;;7.07;57.85
33185;BME280;19550;42.872;25.494;2023-03-14T07:13:10;96364.75;;;7.13;57.63
33185;BME280;19550;42.872;25.494;2023-03-14T07:15:38;96350.69;;;7.15;57.89
33185;BME280;19550;42.872;25.494;2023-03-14T07:18:05;96356.72;;;7.17;57.87
33185;BME280;19550;42.872;25.494;2023-03-14T07:20:32;96351.22;;;7.49;57.50
33185;BME280;19550;42.872;25.494;2023-03-14T07:22:58;96342.88;;;7.68;56.43
33185;BME280;19550;42.872;25.494;2023-03-14T07:25:28;96339.22;;;8.00;54.77
33185;BME280;19550;42.872;25.494;2023-03-14T07:27:55;96331.78;;;8.28;53.68
33185;BME280;19550;42.872;25.494;2023-03-14T07:30:21;96332.50;;;8.61;52.97
33185;BME280;19550;42.872;25.494;2023-03-14T07:32:50;96336.44;;;9.04;51.98
33185;BME280;19550;42.872;25.494;2023-03-14T07:35:16;96325.13;;;9.28;48.41
33185;BME280;19550;42.872;25.494;2023-03-14T07:37:43;96321.25;;;9.60;48.48
33185;BME280;19550;42.872;25.494;2023-03-14T07:40:11;96320.78;;;9.89;47.35
33185;BME280;19550;42.872;25.494;2023-03-14T07:42:40;96307.91;;;10.24;46.22
33185;BME280;19550;42.872;25.494;2023-03-14T07:45:08;96311.75;;;10.54;45.45
33185;BME280;19550;42.872;25.494;2023-03-14T07:47:35;96311.13;;;10.65;42.72
33185;BME280;19550;42.872;25.494;2023-03-14T07:50:04;96313.09;;;10.91;44.06
33185;BME280;19550;42.872;25.494;2023-03-14T07:52:31;96299.09;;;11.22;43.36
33185;BME280;19550;42.872;25.494;2023-03-14T07:54:58;96292.50;;;11.52;43.46
33185;BME280;19550;42.872;25.494;2023-03-14T07:57:25;96283.50;;;11.81;41.55
33185;BME280;19550;42.872;25.494;2023-03-14T07:59:52;96278.72;;;11.90;41.09
33185;BME280;19550;42.872;25.494;2023-03-14T08:02:19;96275.94;;;11.90;39.54
33185;BME280;19550;42.872;25.494;2023-03-14T08:04:47;96274.88;;;12.12;40.33
33185;BME280;19550;42.872;25.494;2023-03-14T08:07:16;96263.78;;;12.41;39.50
33185;BME280;19550;42.872;25.494;2023-03-14T08:09:42;96263.25;;;12.48;38.10
33185;BME280;19550;42.872;25.494;2023-03-14T08:12:09;96260.69;;;12.63;38.71
33185;BME280;19550;42.872;25.494;2023-03-14T08:14:36;96256.94;;;12.89;38.38
33185;BME280;19550;42.872;25.494;2023-03-14T08:17:04;96254.34;;;13.04;37.67
33185;BME280;19550;42.872;25.494;2023-03-14T08:19:33;96246.53;;;13.39;37.65
33185;BME280;19550;42.872;25.494;2023-03-14T08:22:00;96252.09;;;13.72;36.80
33185;BME280;19550;42.872;25.494;2023-03-14T08:24:29;96247.84;;;13.99;35.84
33185;BME280;19550;42.872;25.494;2023-03-14T08:26:56;96245.06;;;13.99;34.57
33185;BME280;19550;42.872;25.494;2023-03-14T08:29:26;96240.78;;;14.14;34.89
33185;BME280;19550;42.872;25.494;2023-03-14T08:31:52;96244.47;;;14.30;34.85
33185;BME280;19550;42.872;25.494;2023-03-14T08:34:20;96233.13;;;14.47;34.35
33185;BME280;19550;42.872;25.494;2023-03-14T08:36:47;96227.63;;;14.63;33.71
33185;BME280;19550;42.872;25.494;2023-03-14T08:39:13;96232.47;;;14.90;33.39
33185;BME280;19550;42.872;25.494;2023-03-14T08:41:42;96226.88;;;14.90;33.01
33185;BME280;19550;42.872;25.494;2023-03-14T08:44:10;96221.25;;;15.15;33.45
33185;BME280;19550;42.872;25.494;2023-03-14T08:46:37;96217.44;;;15.07;32.35
33185;BME280;19550;42.872;25.494;2023-03-14T08:49:04;96219.66;;;15.01;31.85
33185;BME280;19550;42.872;25.494;2023-03-14T08:51:31;96205.41;;;15.19;32.15
33185;BME280;19550;42.872;25.494;2023-03-14T08:53:58;96210.91;;;15.15;32.27
33185;BME280;19550;42.872;25.494;2023-03-14T08:56:25;96198.72;;;15.35;32.33
33185;BME280;19550;42.872;25.494;2023-03-14T08:58:53;96200.13;;;15.57;31.87
33185;BME280;19550;42.872;25.494;2023-03-14T09:01:20;96195.81;;;15.60;31.63
33185;BME280;19550;42.872;25.494;2023-03-14T09:03:49;96196.69;;;15.48;31.43
33185;BME280;19550;42.872;25.494;2023-03-14T09:06:16;96185.09;;;15.77;32.13
33185;BME280;19550;42.872;25.494;2023-03-14T09:08:44;96186.66;;;15.75;31.02
33185;BME280;19550;42.872;25.494;2023-03-14T09:11:12;96181.59;;;15.80;31.95
33185;BME280;19550;42.872;25.494;2023-03-14T09:13:39;96182.69;;;15.92;31.87
33185;BME280;19550;42.872;25.494;2023-03-14T09:16:08;96180.03;;;16.30;32.05
33185;BME280;19550;42.872;25.494;2023-03-14T09:18:35;96171.69;;;16.49;31.38
33185;BME280;19550;42.872;25.494;2023-03-14T09:21:02;96174.16;;;16.86;31.04
33185;BME280;19550;42.872;25.494;2023-03-14T09:23:29;96170.56;;;16.85;30.39
33185;BME280;19550;42.872;25.494;2023-03-14T09:25:56;96166.50;;;16.83;30.64
33185;BME280;19550;42.872;25.494;2023-03-14T09:28:23;96148.09;;;17.01;31.10
33185;BME280;19550;42.872;25.494;2023-03-14T09:30:50;96157.88;;;16.91;30.15
33185;BME280;19550;42.872;25.494;2023-03-14T09:33:19;96147.72;;;17.02;29.86
33185;BME280;19550;42.872;25.494;2023-03-14T09:35:46;96137.41;;;17.06;29.66
33185;BME280;19550;42.872;25.494;2023-03-14T09:38:13;96148.00;;;17.17;30.37
33185;BME280;19550;42.872;25.494;2023-03-14T09:40:40;96143.06;;;17.29;30.18
33185;BME280;19550;42.872;25.494;2023-03-14T09:43:09;96141.06;;;17.30;29.92
33185;BME280;19550;42.872;25.494;2023-03-14T09:45:40;96142.41;;;17.17;29.44
33185;BME280;19550;42.872;25.494;2023-03-14T09:48:11;96136.22;;;17.27;29.40
33185;BME280;19550;42.872;25.494;2023-03-14T09:50:43;96123.97;;;17.16;29.79
33185;BME280;19550;42.872;25.494;2023-03-14T09:53:13;96127.69;;;17.20;30.06
33185;BME280;19550;42.872;25.494;2023-03-14T09:55:42;96130.09;;;17.21;29.45
33185;BME280;19550;42.872;25.494;2023-03-14T09:58:11;96119.47;;;17.30;30.10
33185;BME280;19550;42.872;25.494;2023-03-14T10:00:38;96121.38;;;17.45;30.10
33185;BME280;19550;42.872;25.494;2023-03-14T10:03:21;96114.56;;;17.46;29.40
33185;BME280;19550;42.872;25.494;2023-03-14T10:05:49;96109.09;;;17.73;29.72
33185;BME280;19550;42.872;25.494;2023-03-14T10:08:17;96115.34;;;18.12;29.05
33185;BME280;19550;42.872;25.494;2023-03-14T10:10:43;96101.22;;;18.31;28.09
33185;BME280;19550;42.872;25.494;2023-03-14T10:13:15;96109.97;;;18.26;27.94
33185;BME280;19550;42.872;25.494;2023-03-14T10:15:48;96103.38;;;18.15;28.46
33185;BME280;19550;42.872;25.494;2023-03-14T10:18:15;96096.25;;;18.21;28.63
33185;BME280;19550;42.872;25.494;2023-03-14T10:20:43;96085.63;;;18.34;28.24
33185;BME280;19550;42.872;25.494;2023-03-14T10:23:26;96081.66;;;18.38;28.39
33185;BME280;19550;42.872;25.494;2023-03-14T10:26:05;96079.59;;;18.35;28.21
33185;BME280;19550;42.872;25.494;2023-03-14T10:28:34;96074.88;;;18.65;27.89
33185;BME280;19550;42.872;25.494;2023-03-14T10:31:04;96072.63;;;18.78;26.97
33185;BME280;19550;42.872;25.494;2023-03-14T10:33:32;96062.72;;;18.88;26.73
33185;BME280;19550;42.872;25.494;2023-03-14T10:36:02;96058.38;;;18.94;27.27
33185;BME280;19550;42.872;25.494;2023-03-14T10:38:32;96051.59;;;19.35;26.86
33185;BME280;19550;42.872;25.494;2023-03-14T10:40:59;96052.19;;;19.52;26.85
33185;BME280;19550;42.872;25.494;2023-03-14T10:43:31;96052.84;;;19.41;27.06
33185;BME280;19550;42.872;25.494;2023-03-14T10:45:59;96038.34;;;19.36;27.54
33185;BME280;19550;42.872;25.494;2023-03-14T10:48:32;96033.44;;;19.26;27.29
33185;BME280;19550;42.872;25.494;2023-03-14T10:51:04;96030.19;;;19.24;27.67
33185;BME280;19550;42.872;25.494;2023-03-14T10:53:45;96021.09;;;19.34;26.99
33185;BME280;19550;42.872;25.494;2023-03-14T10:56:13;96024.09;;;19.52;26.10
33185;BME280;19550;42.872;25.494;2023-03-14T10:58:42;96015.09;;;19.83;26.46
33185;BME280;19550;42.872;25.494;2023-03-14T11:01:21;96008.72;;;19.86;26.91
33185;BME280;19550;42.872;25.494;2023-03-14T11:03:55;96008.81;;;20.00;26.20
33185;BME280;19550;42.872;25.494;2023-03-14T11:06:28;96002.50;;;20.17;26.40
33185;BME280;19550;42.872;25.494;2023-03-14T11:09:06;95994.81;;;20.07;26.36
33185;BME280;19550;42.872;25.494;2023-03-14T11:11:39;95999.25;;;20.15;26.23
33185;BME280;19550;42.872;25.494;2023-03-14T11:14:15;95992.28;;;19.95;26.04
33185;BME280;19550;42.872;25.494;2023-03-14T11:16:52;95983.88;;;19.99;26.14
33185;BME280;19550;42.872;25.494;2023-03-14T11:19:40;95971.00;;;19.94;26.11
33185;BME280;19550;42.872;25.494;2023-03-14T11:22:15;95971.44;;;20.03;26.37
33185;BME280;19550;42.872;25.494;2023-03-14T11:24:56;95952.59;;;20.14;26.75
33185;BME280;19550;42.872;25.494;2023-03-14T11:27:35;95942.56;;;20.17;26.06
33185;BME280;19550;42.872;25.494;2023-03-14T11:30:17;95945.78;;;20.12;26.64
33185;BME280;19550;42.872;25.494;2023-03-14T11:32:45;95932.94;;;20.18;26.26
33185;BME280;19550;42.872;25.494;2023-03-14T11:35:17;95928.47;;;20.10;25.47
33185;BME280;19550;42.872;25.494;2023-03-14T11:37:50;95920.78;;;20.00;26.72
33185;BME280;19550;42.872;25.494;2023-03-14T11:40:21;95915.38;;;19.70;25.53
33185;BME280;19550;42.872;25.494;2023-03-14T11:42:55;95916.53;;;19.65;26.08
33185;BME280;19550;42.872;25.494;2023-03-14T11:45:29;95911.28;;;19.60;25.74
33185;BME280;19550;42.872;25.494;2023-03-14T11:48:07;95900.81;;;19.57;26.25
33185;BME280;19550;42.872;25.494;2023-03-14T11:50:40;95888.13;;;19.81;25.96
33185;BME280;19550;42.872;25.494;2023-03-14T11:53:12;95903.25;;;19.59;25.79
33185;BME280;19550;42.872;25.494;2023-03-14T11:55:42;95895.91;;;20.09;25.13
33185;BME280;19550;42.872;25.494;2023-03-14T11:58:14;95886.13;;;19.85;24.88
33185;BME280;19550;42.872;25.494;2023-03-14T12:00:43;95888.38;;;19.62;24.70
33185;BME280;19550;42.872;25.494;2023-03-14T12:03:14;95880.19;;;19.42;25.14
33185;BME280;19550;42.872;25.494;2023-03-14T12:05:50;95873.53;;;19.61;25.79
33185;BME280;19550;42.872;25.494;2023-03-14T12:08:53;95868.50;;;19.95;25.71
33185;BME280;19550;42.872;25.494;2023-03-14T12:11:34;95866.13;;;20.04;24.75
33185;BME280;19550;42.872;25.494;2023-03-14T12:14:03;95866.44;;;19.85;25.15
33185;BME280;19550;42.872;25.494;2023-03-14T12:16:46;95855.69;;;20.08;24.75
33185;BME280;19550;42.872;25.494;2023-03-14T12:19:35;95855.16;;;19.81;24.53
33185;BME280;19550;42.872;25.494;2023-03-14T12:22:27;95850.25;;;19.64;24.64
33185;BME280;19550;42.872;25.494;2023-03-14T12:25:02;95839.94;;;19.90;24.74
33185;BME280;19550;42.872;25.494;2023-03-14T12:27:46;95833.84;;;19.77;24.47
33185;BME280;19550;42.872;25.494;2023-03-14T12:30:23;95843.19;;;20.02;24.98
33185;BME280;19550;42.872;25.494;2023-03-14T12:35:53;95833.06;;;19.80;23.38
33185;BME280;19550;42.872;25.494;2023-03-14T12:38:32;95833.88;;;19.84;23.54
33185;BME280;19550;42.872;25.494;2023-03-14T12:41:14;95829.03;;;19.74;23.37
33185;BME280;19550;42.872;25.494;2023-03-14T12:43:42;95821.63;;;19.48;23.58
33185;BME280;19550;42.872;25.494;2023-03-14T12:46:20;95819.78;;;19.77;23.59
33185;BME280;19550;42.872;25.494;2023-03-14T12:48:49;95804.25;;;20.11;23.65
33185;BME280;19550;42.872;25.494;2023-03-14T12:51:17;95798.63;;;20.15;23.25
33185;BME280;19550;42.872;25.494;2023-03-14T12:54:19;95795.75;;;19.97;23.38
33185;BME280;19550;42.872;25.494;2023-03-14T12:56:57;95795.00;;;20.04;23.96
33185;BME280;19550;42.872;25.494;2023-03-14T12:59:35;95794.16;;;19.96;23.72
33185;BME280;19550;42.872;25.494;2023-03-14T13:02:21;95791.38;;;20.03;23.48
33185;BME280;19550;42.872;25.494;2023-03-14T13:04:51;95781.84;;;20.36;23.79